Map

Track Data

SID SEASON NUMBER BASIN SUBBASIN NAME ISO_TIME NATURE LAT LON WMO_WIND WMO_PRES WMO_AGENCY TRACK_TYPE DIST2LAND LANDFALL IFLAG USA_AGENCY USA_ATCF_ID USA_LAT USA_LON USA_RECORD USA_STATUS USA_WIND USA_PRES USA_SSHS USA_R34_NE USA_R34_SE USA_R34_SW USA_R34_NW USA_R50_NE USA_R50_SE USA_R50_SW USA_R50_NW USA_R64_NE USA_R64_SE USA_R64_SW USA_R64_NW USA_POCI USA_ROCI USA_RMW USA_EYE TOKYO_LAT TOKYO_LON TOKYO_GRADE TOKYO_WIND TOKYO_PRES TOKYO_R50_DIR TOKYO_R50_LONG TOKYO_R50_SHORT TOKYO_R30_DIR TOKYO_R30_LONG TOKYO_R30_SHORT TOKYO_LAND CMA_LAT CMA_LON CMA_CAT CMA_WIND CMA_PRES HKO_LAT HKO_LON HKO_CAT HKO_WIND HKO_PRES NEWDELHI_LAT NEWDELHI_LON NEWDELHI_GRADE NEWDELHI_WIND NEWDELHI_PRES NEWDELHI_CI NEWDELHI_DP NEWDELHI_POCI REUNION_LAT REUNION_LON REUNION_TYPE REUNION_WIND REUNION_PRES REUNION_TNUM REUNION_CI REUNION_RMW REUNION_R34_NE REUNION_R34_SE REUNION_R34_SW REUNION_R34_NW REUNION_R50_NE REUNION_R50_SE REUNION_R50_SW REUNION_R50_NW REUNION_R64_NE REUNION_R64_SE REUNION_R64_SW REUNION_R64_NW BOM_LAT BOM_LON BOM_TYPE BOM_WIND BOM_PRES BOM_TNUM BOM_CI BOM_RMW BOM_R34_NE BOM_R34_SE BOM_R34_SW BOM_R34_NW BOM_R50_NE BOM_R50_SE BOM_R50_SW BOM_R50_NW BOM_R64_NE BOM_R64_SE BOM_R64_SW BOM_R64_NW BOM_ROCI BOM_POCI BOM_EYE BOM_POS_METHOD BOM_PRES_METHOD NADI_LAT NADI_LON NADI_CAT NADI_WIND NADI_PRES WELLINGTON_LAT WELLINGTON_LON WELLINGTON_WIND WELLINGTON_PRES DS824_LAT DS824_LON DS824_STAGE DS824_WIND DS824_PRES TD9636_LAT TD9636_LON TD9636_STAGE TD9636_WIND TD9636_PRES TD9635_LAT TD9635_LON TD9635_WIND TD9635_PRES TD9635_ROCI NEUMANN_LAT NEUMANN_LON NEUMANN_CLASS NEUMANN_WIND NEUMANN_PRES MLC_LAT MLC_LON MLC_CLASS MLC_WIND MLC_PRES USA_GUST BOM_GUST BOM_GUST_PER REUNION_GUST REUNION_GUST_PER USA_SEAHGT USA_SEARAD_NE USA_SEARAD_SE USA_SEARAD_SW USA_SEARAD_NW STORM_SPEED STORM_DIR
1972030S10175 1972 7 SP MM WENDY 1972-01-29 18:00:00 TS -10.0000 175.000 main 840 840 O________O____ jtwc_sh SH131972 -10.0000 175.000 80 1 -10.0000 175.000 TC 80 0 0
1972030S10175 1972 7 SP MM WENDY 1972-01-29 21:00:00 TS -10.0000 175.000 main 840 840 P________P____ SH131972 -10.0000 175.000 100 3 -10.0000 175.000 TC 100 0 0
1972030S10175 1972 7 SP MM WENDY 1972-01-30 00:00:00 TS -10.0000 175.000 main 840 840 O________O__O_ jtwc_sh SH131972 -10.0000 175.000 120 4 -10.0000 175.000 TC 120 -10.0000 175.000 TC 30 0 0
1972030S10175 1972 7 SP MM WENDY 1972-01-30 02:00:00 TS -10.0000 175.000 main 840 840 P________PO_P_ SH131972 -10.0000 175.000 111 3 -10.0000 175.000 TC 111 -10.0000 175.000 1 -10.0000 174.998 TC 30 0 0
1972030S10175 1972 7 SP MM WENDY 1972-01-30 03:00:00 TS -9.99992 174.999 main 840 840 P________PP_P_ SH131972 -10.0000 175.000 107 3 -10.0000 175.000 TC 107 -9.99946 175.000 1 -10.0000 174.997 TC 30 0 0
1972030S10175 1972 7 SP MM WENDY 1972-01-30 06:00:00 TS -9.99961 175.000 main 840 840 O________OP_O_ jtwc_sh SH131972 -10.0000 175.000 95 2 -10.0000 175.000 TC 95 -9.99806 175.000 1 -10.0000 175.000 TC 30 0 0
1972030S10175 1972 7 SP MM WENDY 1972-01-30 09:00:00 TS -9.99937 175.002 main 840 840 P________PP_P_ SH131972 -10.0000 175.000 67 1 -10.0000 175.000 TC 67 -9.99748 175.000 1 -10.0000 175.008 TC 30 0 0
1972030S10175 1972 7 SP MM WENDY 1972-01-30 12:00:00 TS -9.99958 175.000 main 840 840 O________OP_O_ jtwc_sh SH131972 -10.0000 175.000 40 0 -10.0000 175.000 TC 40 -9.99833 175.000 1 -10.0000 175.000 TC 30 0 0
1972030S10175 1972 7 SP MM WENDY 1972-01-30 14:00:00 TS -9.99593 174.996 main 840 840 P________PO_P_ SH131972 -9.99457 175.005 36 0 -9.99457 175.005 TC 36 -10.0000 175.000 1 -9.99457 174.975 TC 30 0 0
1972030S10175 1972 7 SP MM WENDY 1972-01-30 15:00:00 TS -9.99469 174.993 main 840 840 P________PP_P_ SH131972 -9.99250 175.008 35 0 -9.99250 175.008 TC 35 -10.0013 175.000 1 -9.99250 174.958 TC 30 0 0
1972030S10175 1972 7 SP MM WENDY 1972-01-30 18:00:00 TS -10.0023 174.973 main 840 840 O________OP_O_ jtwc_sh SH131972 -10.0000 175.000 30 -1 -10.0000 175.000 TC 30 -10.0090 174.993 1 -10.0000 174.900 TC 30 1 221
1972030S10175 1972 7 SP MM WENDY 1972-01-30 21:00:00 TS -10.0369 174.950 main 840 830 P________PP_P_ SH131972 -10.0425 174.980 30 -1 -10.0425 174.980 TC 30 -10.0277 174.960 1 -10.0350 174.880 TC 30 1 200
1972030S10175 1972 7 SP MM WENDY 1972-01-31 00:00:00 TS -10.0855 174.937 40 990 wellington main 835 835 O_______OOP_O_ jtwc_sh SH131972 -10.1000 174.900 30 -1 -10.0000 176.000 40 990 -10.1000 174.900 TC 30 -10.0635 174.884 1 -10.1000 174.800 TC 30 1 227
1972030S10175 1972 7 SP MM WENDY 1972-01-31 02:00:00 TS -10.1216 174.862 main 835 835 P_______PPO_P_ SH131972 -10.1279 174.796 28 -1 -10.0650 175.643 42 988 -10.1279 174.796 TC 28 -10.1000 174.800 1 -10.1588 174.665 TC 30 3 245
1972030S10175 1972 7 SP MM WENDY 1972-01-31 03:00:00 TS -10.1409 174.817 main 840 830 P_______PPP_P_ SH131972 -10.1425 174.730 27 -1 -10.0976 175.464 43 987 -10.1425 174.730 TC 27 -10.1184 174.745 1 -10.1925 174.580 TC 30 5 253
1972030S10175 1972 7 SP MM WENDY 1972-01-31 06:00:00 TS -10.2167 174.554 main 841 841 O_______POP_O_ jtwc_sh SH131972 -10.2000 174.500 25 -1 -10.1958 174.933 47 985 -10.2000 174.500 TC 25 -10.1880 174.535 1 -10.3000 174.300 TC 30 6 253
1972030S10175 1972 7 SP MM WENDY 1972-01-31 09:00:00 TS -10.3065 174.252 main 848 848 P_______PPP_P_ SH131972 -10.2850 174.257 25 -1 -10.2961 174.410 51 982 -10.2850 174.257 TC 25 -10.2817 174.277 1 -10.3850 174.057 TC 30 6 251
1972030S10175 1972 7 SP MM WENDY 1972-01-31 12:00:00 TS -10.4205 173.939 55 980 wellington main 863 853 O_______OOP_O_ jtwc_sh SH131972 -10.4000 174.000 25 -1 -10.4000 173.900 55 980 -10.4000 174.000 TC 25 -10.4027 173.993 1 -10.5000 173.800 TC 30 7 248
1972030S10175 1972 7 SP MM WENDY 1972-01-31 14:00:00 TS -10.5127 173.730 main 866 860 P_______PPO_P_ SH131972 -10.4866 173.839 25 -1 -10.4726 173.569 56 978 -10.4866 173.839 TC 25 -10.5000 173.800 1 -10.6175 173.602 TC 30 7 245
1972030S10175 1972 7 SP MM WENDY 1972-01-31 15:00:00 TS -10.5623 173.630 main 860 826 P_______PPP_P_ SH131972 -10.5350 173.757 25 -1 -10.5110 173.406 57 977 -10.5350 173.757 TC 25 -10.5457 173.730 1 -10.6850 173.500 TC 30 7 241
1972030S10175 1972 7 SP MM WENDY 1972-01-31 18:00:00 TS -10.7283 173.330 main 826 796 O_______POP_O_ jtwc_sh SH131972 -10.7000 173.500 25 -1 -10.6397 172.927 60 975 -10.7000 173.500 TC 25 -10.7018 173.522 1 -10.9000 173.200 TC 30 7 239
1972030S10175 1972 7 SP MM WENDY 1972-01-31 21:00:00 TS -10.9044 173.041 main 787 747 P_______PPP_P_ SH131972 -10.8774 173.230 25 -1 -10.7985 172.459 62 972 -10.8774 173.230 TC 25 -10.8914 173.283 1 -11.0772 173.002 TC 30 7 238
1972030S10175 1972 7 SP MM WENDY 1972-02-01 00:00:00 TS -11.1243 172.694 65 970 wellington main 747 707 O_______OOP_O_ jtwc_sh SH131972 -11.1000 172.900 25 -1 -11.0000 172.000 65 970 -11.1000 172.900 TC 25 -11.1213 172.971 1 -11.3000 172.700 TC 30 9 238
1972030S10175 1972 7 SP MM WENDY 1972-02-01 02:00:00 TS -11.3028 172.402 main 707 692 P_______PPO_P_ SH131972 -11.2732 172.656 26 -1 -11.1579 171.668 67 967 -11.2732 172.656 TC 26 -11.3000 172.700 1 -11.5098 172.330 TC 30 11 238
1972030S10175 1972 7 SP MM WENDY 1972-02-01 03:00:00 TS -11.4028 172.235 main 683 620 P_______PPP_P_ SH131972 -11.3698 172.517 27 -1 -11.2448 171.502 68 966 -11.3698 172.517 TC 27 -11.4018 172.527 1 -11.6277 172.110 TC 30 13 239
1972030S10175 1972 7 SP MM WENDY 1972-02-01 06:00:00 TS -11.7350 171.668 main 620 540 O_______POP_O_ jtwc_sh SH131972 -11.7000 172.000 30 -1 -11.5327 171.018 72 962 -11.7000 172.000 TC 30 -11.7420 171.920 1 -12.0000 171.400 TC 30 14 239
1972030S10175 1972 7 SP MM WENDY 1972-02-01 09:00:00 TS -12.1060 171.017 main 532 453 P_______PPP_P_ SH131972 -12.1003 171.273 30 -1 -11.8543 170.574 76 958 -12.1003 171.273 TC 30 -12.1100 171.236 1 -12.3650 170.728 TC 30 15 240
1972030S10175 1972 7 SP MM WENDY 1972-02-01 12:00:00 TS -12.4749 170.368 80 955 wellington main 453 405 O_______OOP_O_ jtwc_sh SH131972 -12.5000 170.500 30 -1 -12.2000 170.200 80 955 -12.5000 170.500 TC 30 -12.4744 170.539 1 -12.7000 170.100 TC 30 14 239
1972030S10175 1972 7 SP MM WENDY 1972-02-01 14:00:00 TS -12.6982 169.997 main 405 389 P_______PPO_P_ SH131972 -12.7210 170.065 30 -1 -12.4666 170.012 80 955 -12.7210 170.065 TC 30 -12.7000 170.100 1 -12.8822 169.743 TC 30 13 238
1972030S10175 1972 7 SP MM WENDY 1972-02-01 15:00:00 TS -12.8048 169.826 main 381 326 P_______PPP_P_ SH131972 -12.8223 169.862 30 -1 -12.6058 169.932 80 955 -12.8223 169.862 TC 30 -12.8089 169.896 1 -12.9648 169.577 TC 30 11 237
1972030S10175 1972 7 SP MM WENDY 1972-02-01 18:00:00 TS -13.1087 169.348 main 318 264 O_______POP_O_ jtwc_sh SH131972 -13.1000 169.300 30 -1 -13.0244 169.732 80 955 -13.1000 169.300 TC 30 -13.1191 169.310 1 -13.2000 169.100 TC 30 11 237
1972030S10175 1972 7 SP MM WENDY 1972-02-01 21:00:00 TS -13.4116 168.875 main 264 217 P_______PPP_P_ SH131972 -13.3875 168.740 30 -1 -13.4059 169.566 80 955 -13.3875 168.740 TC 30 -13.3894 168.782 1 -13.4876 168.548 TC 30 10 238
1972030S10175 1972 7 SP MM WENDY 1972-02-02 00:00:00 TS -13.6402 168.488 80 955 wellington main 217 194 O_______OOP_O_ jtwc_sh SH131972 -13.6000 168.300 30 -1 -13.7000 169.400 80 955 -13.6000 168.300 TC 30 -13.6009 168.338 1 -13.7000 168.100 TC 30 8 241
1972030S10175 1972 7 SP MM WENDY 1972-02-02 02:00:00 TS -13.7180 168.306 main 194 187 P_______PPO_P_ SH131972 -13.6702 168.114 31 -1 -13.8101 169.261 79 955 -13.6702 168.114 TC 31 -13.7000 168.100 1 30 -13.7393 167.945 TC 45 5 248
1972030S10175 1972 7 SP MM WENDY 1972-02-02 03:00:00 TS -13.7375 168.237 main 187 172 P_______PPP_P_ SH131972 -13.6873 168.047 32 -1 -13.8474 169.190 78 956 -13.6873 168.047 TC 32 -13.7283 168.004 1 37 -13.7373 167.897 TC 52 3 261
1972030S10175 1972 7 SP MM WENDY 1972-02-02 06:00:00 TS -13.7523 168.073 main 172 165 O_______POP_O_ jtwc_sh SH131972 -13.7000 167.900 35 0 -13.9048 168.972 77 957 -13.7000 167.900 TC 35 -13.7565 167.794 1 59 -13.7000 167.800 TC 75 3 269
1972030S10175 1972 7 SP MM WENDY 1972-02-02 09:00:00 TS -13.7457 167.910 main 169 163 P_______PPP_P_ SH131972 -13.7000 167.742 35 0 -13.9099 168.743 76 958 -13.7000 167.742 TC 35 -13.7336 167.665 1 82 -13.6850 167.657 TC 97 3 272
1972030S10175 1972 7 SP MM WENDY 1972-02-02 12:00:00 TS -13.7406 167.754 75 960 wellington main 163 144 O_______OOP_O_ jtwc_sh SH131972 -13.7000 167.600 35 0 -13.9000 168.500 75 960 -13.7000 167.600 TC 35 -13.7031 167.569 1 104 -13.7000 167.500 TC 120 3 267
1972030S10175 1972 7 SP MM WENDY 1972-02-02 14:00:00 TS -13.7605 167.642 main 144 144 P_______PPO_P_ SH131972 -13.7200 167.505 35 0 -13.9119 168.328 74 960 -13.7200 167.505 TC 35 -13.7000 167.500 4 120 -13.7509 167.369 TC 104 3 258
1972030S10175 1972 7 SP MM WENDY 1972-02-02 15:00:00 TS -13.7779 167.580 main 144 132 P_______PPP_P_ SH131972 -13.7350 167.457 35 0 -13.9159 168.239 73 961 -13.7350 167.457 TC 35 -13.7187 167.447 4 112 -13.7850 167.300 TC 97 4 251
1972030S10175 1972 7 SP MM WENDY 1972-02-02 18:00:00 TS -13.8447 167.390 main 132 110 O_______POP_O_ jtwc_sh SH131972 -13.8000 167.300 35 0 -13.9275 167.965 72 962 -13.8000 167.300 TC 35 -13.7962 167.285 4 91 -13.9000 167.100 TC 75 4 249
1972030S10175 1972 7 SP MM WENDY 1972-02-02 21:00:00 TS -13.9238 167.194 main 110 89 P_______PPP_P_ SH131972 -13.8850 167.107 32 -1 -13.9503 167.683 71 963 -13.8850 167.107 TC 32 -13.8988 167.114 4 70 -13.9999 166.957 TC 65 4 245
1972030S10175 1972 7 SP MM WENDY 1972-02-03 00:00:00 TS -14.0234 166.986 70 965 wellington main 89 70 O_______OOP_O_ jtwc_sh SH131972 -14.0000 166.900 30 -1 -14.0000 167.400 70 965 -14.0000 166.900 TC 30 -14.0171 166.931 4 49 -14.1000 166.800 TC 55 5 243
1972030S10175 1972 7 SP MM WENDY 1972-02-03 02:00:00 TS -14.0981 166.837 main 70 70 P_______PPO_P_ SH131972 -14.0975 166.772 30 -1 -14.0343 167.198 70 965 -14.0975 166.772 TC 30 -14.1000 166.800 2 35 -14.1613 166.644 TC 51 5 243
1972030S10175 1972 7 SP MM WENDY 1972-02-03 03:00:00 TS -14.1361 166.759 main 70 55 P_______PPP_P_ SH131972 -14.1500 166.708 30 -1 -14.0557 167.097 70 965 -14.1500 166.708 TC 30 -14.1322 166.728 2 -14.1925 166.557 TC 50 5 243
1972030S10175 1972 7 SP MM WENDY 1972-02-03 06:00:00 TS -14.2554 166.519 main 46 46 O_______POP_O_ jtwc_sh SH131972 -14.3000 166.500 30 -1 -14.1452 166.797 70 965 -14.3000 166.500 TC 30 -14.2317 166.499 2 -14.3000 166.300 TC 45 5 243
1972030S10175 1972 7 SP MM WENDY 1972-02-03 09:00:00 TS -14.3735 166.273 main 46 46 P_______PPP_P_ SH131972 -14.4000 166.242 30 -1 -14.2870 166.525 70 965 -14.4000 166.242 TC 30 -14.3453 166.264 2 -14.4350 166.092 TC 40 5 240
1972030S10175 1972 7 SP MM WENDY 1972-02-03 12:00:00 TS -14.5171 166.048 70 965 wellington main 63 58 O_______OOP_O_ jtwc_sh SH131972 -14.5000 166.000 30 -1 -14.5000 166.300 70 965 -14.5000 166.000 TC 30 -14.4855 166.038 2 -14.6000 165.900 TC 35 5 232
1972030S10175 1972 7 SP MM WENDY 1972-02-03 14:00:00 TS -14.6333 165.928 main 68 65 P_______PPO_P_ SH131972 -14.5758 165.884 30 -1 -14.7005 166.217 72 961 -14.5758 165.884 TC 30 -14.6000 165.900 2 -14.7146 165.756 TC 35 5 223
1972030S10175 1972 7 SP MM WENDY 1972-02-03 15:00:00 TS -14.6985 165.876 main 65 65 P_______PPP_P_ SH131972 -14.6200 165.835 30 -1 -14.8149 166.186 73 960 -14.6200 165.835 TC 30 -14.6604 165.840 2 -14.7775 165.685 TC 35 5 212
1972030S10175 1972 7 SP MM WENDY 1972-02-03 18:00:00 TS -14.9327 165.738 main 86 86 O_______POP_O_ jtwc_sh SH131972 -14.8000 165.700 30 -1 -15.1970 166.114 77 955 -14.8000 165.700 TC 30 -14.8666 165.676 2 -15.0000 165.500 TC 35 6 206
1972030S10175 1972 7 SP MM WENDY 1972-02-03 21:00:00 TS -15.2267 165.612 main 106 106 P_______PPP_P_ SH131972 -15.0700 165.550 30 -1 -15.6055 166.036 81 950 -15.0700 165.550 TC 30 -15.1103 165.530 2 -15.2775 165.392 TC 37 7 202
1972030S10175 1972 7 SP MM WENDY 1972-02-04 00:00:00 TS -15.5583 165.478 85 945 wellington main 120 120 O_______OOP_O_ jtwc_sh SH131972 -15.4000 165.400 30 -1 -16.0000 165.900 85 945 -15.4000 165.400 TC 30 -15.3916 165.392 2 -15.6000 165.300 TC 40 7 203
1972030S10175 1972 7 SP MM WENDY 1972-02-04 02:00:00 TS -15.7804 165.365 main 136 136 P_______PPO_P_ SH131972 -15.6200 165.300 30 -1 -16.2146 165.735 82 948 -15.6200 165.300 TC 30 -15.6000 165.300 1 24 -15.8472 165.192 TC 50 8 207
1972030S10175 1972 7 SP MM WENDY 1972-02-04 03:00:00 TS -15.8939 165.305 main 150 150 P_______PPP_P_ SH131972 -15.7350 165.250 30 -1 -16.3177 165.640 81 950 -15.7350 165.250 TC 30 -15.7095 165.250 1 -15.9725 165.135 TC 55 8 207
1972030S10175 1972 7 SP MM WENDY 1972-02-04 06:00:00 TS -16.2362 165.123 main 183 183 O_______POP_O_ jtwc_sh SH131972 -16.1000 165.100 30 -1 -16.6153 165.317 77 955 -16.1000 165.100 TC 30 -16.0659 165.100 1 -16.3000 165.000 TC 70 7 207
1972030S10175 1972 7 SP MM WENDY 1972-02-04 08:00:00 TS -16.4450 165.014 main 204 210 P_____O_PPP_P_ SH131972 -16.3642 165.000 30 -1 -16.3000 165.000 -16.8086 165.082 74 958 -16.3642 165.000 TC 30 -16.3200 165.000 1 -16.4044 164.992 TC 80 7 207
1972030S10175 1972 7 SP MM WENDY 1972-02-04 09:00:00 TS -16.5445 164.959 main 210 210 P_____P_PPP_P_ SH131972 -16.5000 164.950 30 -1 -16.3951 164.930 -16.9052 164.961 73 960 -16.5000 164.950 TC 30 -16.4499 164.950 1 -16.4425 165.000 TC 85 7 207
1972030S10175 1972 7 SP MM WENDY 1972-02-04 11:00:00 TS -16.7537 164.848 main 246 246 P_____O_PPP_P_ SH131972 -16.7697 164.850 30 -1 -16.6000 164.800 947 -17.1004 164.719 71 963 -16.7697 164.850 TC 30 -16.7119 164.850 1 -16.5319 165.009 TC 95 7 208
1972030S10175 1972 7 SP MM WENDY 1972-02-04 12:00:00 TS -16.8534 164.791 70 965 wellington main 252 252 O_____P_OOP_O_ jtwc_sh SH131972 -16.9000 164.800 30 -1 -16.7164 164.745 946 -17.2000 164.600 70 965 -16.9000 164.800 TC 30 -16.8426 164.800 1 -16.6000 165.000 TC 100 947 8 206
1972030S10175 1972 7 SP MM WENDY 1972-02-04 14:00:00 TS -17.0887 164.678 main 273 273 P_____P_PPO_P_ SH131972 -17.1412 164.700 30 -1 -16.9764 164.653 945 -17.3952 164.378 70 965 -17.1412 164.700 TC 30 -17.1000 164.700 1 -16.8218 164.918 TC 101 945 8 205
1972030S10175 1972 7 SP MM WENDY 1972-02-04 15:00:00 TS -17.2093 164.623 main 288 288 P_____P_PPP_P_ SH131972 -17.2575 164.650 30 -1 -17.1171 164.614 945 -17.4934 164.266 70 965 -17.2575 164.650 TC 30 -17.2187 164.658 1 -16.9550 164.865 TC 102 945 8 203
1972030S10175 1972 7 SP MM WENDY 1972-02-04 18:00:00 TS -17.5890 164.458 main 293 247 O_____P_POP_O_ jtwc_sh SH131972 -17.6000 164.500 30 -1 -17.5637 164.509 944 -17.7975 163.934 70 965 -17.6000 164.500 TC 30 -17.5688 164.537 1 -17.4000 164.700 TC 105 944 8 202
1972030S10175 1972 7 SP MM WENDY 1972-02-04 21:00:00 TS -17.9765 164.302 main 247 223 P_____P_PPP_P_ SH131972 -17.9500 164.357 30 -1 -18.0157 164.396 942 -18.1278 163.610 70 965 -17.9500 164.357 TC 30 -17.9149 164.405 1 -17.8649 164.615 TC 107 943 8 202
1972030S10175 1972 7 SP MM WENDY 1972-02-04 23:00:00 TS -18.2318 164.188 main 223 212 P_____O_PPP_P_ SH131972 -18.1833 164.256 30 -1 -18.3000 164.300 942 4 -18.3703 163.401 70 965 -18.1833 164.256 TC 30 -18.1465 164.300 1 -18.1645 164.548 TC 109 942 8 204
1972030S10175 1972 7 SP MM WENDY 1972-02-05 00:00:00 TS -18.3548 164.126 70 965 wellington main 201 179 O_____P_OOP_O_ jtwc_sh SH131972 -18.3000 164.200 30 -1 -18.4204 164.242 942 -18.5000 163.300 70 965 -18.3000 164.200 TC 30 -18.2633 164.239 1 -18.3000 164.500 TC 110 942 8 207
1972030S10175 1972 7 SP MM WENDY 1972-02-05 02:00:00 TS -18.5921 163.991 main 179 168 P_____P_PPO_P_ SH131972 -18.5278 164.091 30 -1 -18.6494 164.114 943 -18.7848 163.110 70 964 -18.5278 164.091 TC 30 -18.5000 164.100 1 30 -18.5183 164.357 TC 108 943 8 209
1972030S10175 1972 7 SP MM WENDY 1972-02-05 03:00:00 TS -18.7097 163.917 main 169 140 P_____P_PPP_P_ SH131972 -18.6424 164.030 30 -1 -18.7592 164.044 944 -18.9356 163.018 71 963 -18.6424 164.030 TC 30 -18.6241 164.019 1 -18.6150 164.272 TC 107 943 9 213
1972030S10175 1972 7 SP MM WENDY 1972-02-05 06:00:00 TS -19.0662 163.668 main 129 115 O_____P_POP_O_ jtwc_sh SH131972 -19.0000 163.800 30 -1 -19.0764 163.805 946 -19.4121 162.749 72 962 -19.0000 163.800 TC 30 -19.0030 163.738 1 -18.9000 164.000 TC 105 945 9 215
1972030S10175 1972 7 SP MM WENDY 1972-02-05 09:00:00 TS -19.4436 163.381 main 115 107 P_____P_PPP_P_ SH131972 -19.4000 163.480 30 -1 -19.3878 163.519 947 -19.9075 162.481 73 961 -19.4000 163.480 TC 30 -19.3843 163.412 1 -19.2423 163.780 TC 102 947 10 217
1972030S10175 1972 7 SP MM WENDY 1972-02-05 11:00:00 TS -19.6980 163.164 main 107 109 P_____O_PPP_P_ SH131972 -19.6697 163.230 30 -1 -19.6000 163.300 949 -20.2375 162.296 74 960 -19.6697 163.230 TC 30 -19.6352 163.175 1 -19.4806 163.606 TC 100 948 10 219
1972030S10175 1972 7 SP MM WENDY 1972-02-05 12:00:00 TS -19.8253 163.047 75 960 wellington main 118 113 O_____P_OOP_O_ jtwc_sh SH131972 -19.8000 163.100 30 -1 -19.7182 163.180 950 -20.4000 162.200 75 960 -19.8000 163.100 TC 30 -19.7587 163.052 1 -19.6000 163.500 TC 100 949 10 223
1972030S10175 1972 7 SP MM WENDY 1972-02-05 14:00:00 TS -20.0768 162.794 main 127 127 P_____P_PPO_P_ SH131972 -20.0466 162.841 31 -1 -19.9589 162.920 952 -20.7190 161.977 75 959 -20.0466 162.841 TC 31 -20.0000 162.800 2 -19.8335 163.226 TC 96 951 10 224
1972030S10175 1972 7 SP MM WENDY 1972-02-05 15:00:00 TS -20.2009 162.661 main 136 136 P_____P_PPP_P_ SH131972 -20.1650 162.707 32 -1 -20.0802 162.781 953 -20.8777 161.861 76 958 -20.1650 162.707 TC 32 -20.1175 162.674 2 -19.9501 163.073 TC 95 952 11 226
1972030S10175 1972 7 SP MM WENDY 1972-02-05 18:00:00 TS -20.5649 162.247 main 190 190 O_____P_POP_O_ jtwc_sh SH131972 -20.5000 162.300 35 0 -20.4413 162.344 957 -21.3454 161.513 77 957 -20.5000 162.300 TC 35 -20.4601 162.279 2 -20.3000 162.600 TC 90 956 11 227
1972030S10175 1972 7 SP MM WENDY 1972-02-05 21:00:00 TS -20.9149 161.841 main 238 238 P_____P_PPP_P_ SH131972 -20.8074 161.900 35 0 -20.7864 161.894 961 -21.7903 161.183 78 956 -20.8074 161.900 TC 35 -20.7876 161.870 2 -20.6649 162.192 TC 87 958 10 228
1972030S10175 1972 7 SP MM WENDY 1972-02-05 23:00:00 TS -21.1363 161.576 main 265 269 P_____O_PPP_P_ SH131972 -21.0026 161.633 35 0 -21.0000 161.600 964 -22.0681 160.988 79 955 -21.0026 161.633 TC 35 -20.9976 161.598 2 -20.8947 161.931 TC 85 959 10 228
1972030S10175 1972 7 SP MM WENDY 1972-02-06 00:00:00 TS -21.2408 161.447 80 955 wellington main 288 288 O_____P_OOP_O_ jtwc_sh SH131972 -21.1000 161.500 35 0 -21.0859 161.464 964 -22.2000 160.900 80 955 -21.1000 161.500 TC 35 -21.1000 161.463 2 -21.0000 161.800 TC 85 960 9 230
1972030S10175 1972 7 SP MM WENDY 1972-02-06 02:00:00 TS -21.4399 161.190 main 315 320 P_____P_PPO_P_ SH131972 -21.3054 161.228 -1 -21.2462 161.195 967 -22.4397 160.754 80 955 -21.3054 161.228 TC -21.3000 161.200 2 35 -21.1715 161.533 TC 83 962 9 231
1972030S10175 1972 7 SP MM WENDY 1972-02-06 03:00:00 TS -21.5360 161.062 main 329 329 P_____P_PPP_P_ SH131972 -21.4075 161.092 -1 -21.3252 161.061 967 -22.5524 160.691 80 955 -21.4075 161.092 TC -21.3959 161.061 2 34 -21.2499 161.400 TC 82 963 9 231
1972030S10175 1972 7 SP MM WENDY 1972-02-06 06:00:00 TS -21.8204 160.691 main 381 381 O_____P_POP_O_ jtwc_sh SH131972 -21.7000 160.700 -1 -21.5850 160.665 970 -22.8721 160.531 80 955 -21.7000 160.700 TC -21.6718 160.647 2 33 -21.5000 161.000 TC 80 966 9 230
1972030S10175 1972 7 SP MM WENDY 1972-02-06 08:00:00 TS -22.0141 160.450 main 409 418 P_____I_PPP_P_ SH131972 -21.8691 160.442 -1 -21.8000 160.400 973 -23.0777 160.445 80 955 -21.8691 160.442 TC -21.8503 160.388 2 32 -21.7230 160.712 TC 76 968 9 228
1972030S10175 1972 7 SP MM WENDY 1972-02-06 09:00:00 TS -22.1145 160.334 main 433 433 P_____P_PPP_P_ SH131972 -21.9500 160.320 -1 -21.9321 160.258 973 -23.1807 160.406 80 955 -21.9500 160.320 TC -21.9393 160.267 2 32 -21.8426 160.570 TC 75 969 9 225
1972030S10175 1972 7 SP MM WENDY 1972-02-06 11:00:00 TS -22.3176 160.125 976 bom main 461 461 P_____O_PPP_P_ SH131972 -22.1136 160.097 -1 -22.2000 160.000 976 -23.3910 160.334 80 955 -22.1136 160.097 TC -22.1190 160.049 2 31 -22.0838 160.311 TC 71 971 8 222
1972030S10175 1972 7 SP MM WENDY 1972-02-06 12:00:00 TS -22.4177 160.036 main 476 476 O_____P_OOP_O_ jtwc_sh SH131972 -22.2000 160.000 -1 -22.3134 159.896 976 -23.5000 160.300 80 955 -22.2000 160.000 TC -22.2107 159.954 2 30 -22.2000 160.200 TC 70 972 8 216
1972030S10175 1972 7 SP EA WENDY 1972-02-06 14:00:00 TS -22.6211 159.881 main 496 496 P_____P_PPO_P_ SH131972 -22.3866 159.821 -1 -22.5135 159.738 979 -23.7648 160.214 77 957 -22.3866 159.821 TC -22.4000 159.800 1 30 -22.4023 160.019 TC 64 975 7 213
1972030S10175 1972 7 SP EA WENDY 1972-02-06 15:00:00 TS -22.7248 159.819 main 510 510 P_____P_PPP_P_ SH131972 -22.4849 159.748 -1 -22.6073 159.681 979 -23.9012 160.174 76 958 -22.4849 159.748 TC -22.5039 159.737 1 30 -22.4999 159.947 TC 62 977 7 204
1972030S10175 1972 7 SP EA WENDY 1972-02-06 17:00:00 TS -22.9382 159.725 982 bom main 531 537 P_____O_PPP_P_ SH131972 -22.6916 159.636 -1 -22.8000 159.600 982 -24.1752 160.098 73 961 -22.6916 159.636 TC -22.7182 159.645 1 30 -22.6969 159.839 TC 57 981 7 200
1972030S10175 1972 7 SP EA WENDY 1972-02-06 18:00:00 TS -23.0504 159.690 main 543 543 O_____P_POP_O_ jtwc_sh SH131972 -22.8000 159.600 -1 -22.9150 159.555 982 -24.3099 160.063 72 962 -22.8000 159.600 TC -22.8277 159.615 1 30 -22.8000 159.800 TC 55 983 7 192
1972030S10175 1972 7 SP EA WENDY 1972-02-06 21:00:00 TS -23.4059 159.622 main 571 571 P_____P_PPP_P_ SH131972 -23.1499 159.540 -1 -23.2733 159.484 985 -24.6887 159.970 68 966 -23.1499 159.540 TC -23.1604 159.584 1 31 -23.1649 159.683 TC 52 985 7 186
1972030S10175 1972 7 SP EA WENDY 1972-02-06 23:00:00 TS -23.6353 159.630 987 bom main 584 590 P_____O_PPP_P_ SH131972 -23.3864 159.567 -1 -23.5000 159.500 987 -24.9061 159.921 66 968 -23.3864 159.567 TC -23.3808 159.607 1 31 -23.3978 159.675 TC 50 986 7 173
1972030S10175 1972 7 SP EA WENDY 1972-02-07 00:00:00 TS -23.7393 159.654 main 582 582 O_____P_OOP_O_ jtwc_sh SH131972 -23.5000 159.600 -1 -23.5860 159.547 987 -25.0000 159.900 65 970 -23.5000 159.600 TC -23.4892 159.631 1 31 -23.5000 159.700 TC 50 987 6 161
1972030S10175 1972 7 SP EA WENDY 1972-02-07 02:00:00 TS -23.9194 159.740 main 594 586 P_____P_PPO_P_ SH131972 -23.7133 159.696 -1 -23.7302 159.699 988 -25.1404 159.866 63 971 -23.7133 159.696 TC -23.7000 159.700 1 32 -23.6517 159.819 TC 48 988 6 152
1972030S10175 1972 7 SP EA WENDY 1972-02-07 03:00:00 TS -24.0012 159.801 main 592 590 P_____P_PPP_P_ SH131972 -23.8150 159.762 -1 -23.7933 159.796 989 -25.1968 159.853 62 972 -23.8150 159.762 TC -23.8022 159.751 1 31 -23.7151 159.905 TC 47 988 6 140
1972030S10175 1972 7 SP MM WENDY 1972-02-07 06:00:00 TS -24.2278 160.021 main 590 586 O_____P_POP_O_ jtwc_sh SH131972 -24.1000 160.000 -1 -23.9752 160.119 991 -25.3249 159.827 60 975 -24.1000 160.000 TC -24.0992 159.959 1 31 -23.9000 160.200 TC 45 990 6 137
1972030S10175 1972 7 SP MM WENDY 1972-02-07 09:00:00 TS -24.4484 160.255 main 578 578 P_____P_PPP_P_ SH131972 -24.3576 160.287 -1 -24.1971 160.398 992 -25.4156 159.813 57 977 -24.3576 160.287 TC -24.3793 160.201 1 30 -24.1351 160.495 TC 42 992 6 139
1972030S10175 1972 7 SP MM WENDY 1972-02-07 11:00:00 TS -24.6004 160.378 main 582 582 P_____O_PPP_P_ SH131972 -24.5193 160.448 -1 -24.4000 160.500 994 -25.4706 159.805 55 979 -24.5193 160.448 TC -24.5550 160.349 1 30 -24.3084 160.651 TC 40 993 6 147
1972030S10175 1972 7 SP MM WENDY 1972-02-07 12:00:00 TS -24.6817 160.418 main 589 589 O_____P_OOP_O_ jtwc_sh SH131972 -24.6000 160.500 -1 -24.5329 160.512 993 -25.5000 159.800 55 980 -24.6000 160.500 TC -24.6393 160.411 1 30 -24.4000 160.700 TC 40 994 5 169
1972030S10175 1972 7 SP MM WENDY 1972-02-07 14:00:00 TS -24.8582 160.440 main 603 603 P_____O_PPO_P_ SH131972 -24.7720 160.520 -1 -24.8000 160.500 993 -25.5833 159.794 55 980 -24.7720 160.520 TC -24.8000 160.500 1 30 -24.5975 160.720 TC 40 994 5 0
1972030S10175 1972 7 SP MM WENDY 1972-02-07 15:00:00 TS -24.9447 160.431 main 603 603 P_____P_PPP_P_ SH131972 -24.8574 160.503 -1 -24.9156 160.486 993 -25.6250 159.791 55 980 -24.8574 160.503 TC -24.8816 160.510 1 30 -24.6999 160.703 TC 40 994 5 191
1972030S10175 1972 7 SP MM WENDY 1972-02-07 18:00:00 TS -25.1878 160.360 main 625 625 O_____P_POP_O_ jtwc_sh SH131972 -25.1000 160.400 -1 -25.1984 160.402 994 -25.7499 159.780 55 980 -25.1000 160.400 TC -25.1119 160.473 1 31 -25.0000 160.600 TC 40 994 5 198
1972030S10175 1972 7 SP MM WENDY 1972-02-07 21:00:00 TS -25.4013 160.269 main 647 647 P_____P_PPP_P_ SH131972 -25.3150 160.315 -1 -25.4005 160.282 996 -25.8749 159.754 55 980 -25.3150 160.315 TC -25.3183 160.363 1 32 -25.2800 160.508 TC 37 995 4 204
1972030S10175 1972 7 SP MM WENDY 1972-02-07 23:00:00 TS -25.5232 160.194 main 662 662 P_____O_PPP_P_ SH131972 -25.4417 160.242 -1 -25.5000 160.200 997 -25.9583 159.722 55 980 -25.4417 160.242 TC -25.4409 160.264 1 33 -25.4364 160.436 TC 35 996 4 211
1972030S10175 1972 7 SP MM WENDY 1972-02-08 00:00:00 TS -25.5775 160.154 main 670 670 O_____P_OOP_O_ jtwc_sh SH131972 -25.5000 160.200 -1 -25.5453 160.170 997 -26.0000 159.700 55 980 -25.5000 160.200 TC -25.4973 160.210 1 34 -25.5000 160.400 TC 35 997 4 216
1972030S10175 1972 7 SP MM WENDY 1972-02-08 02:00:00 TS -25.6742 160.074 main 677 667 P_____P_PPO_P_ SH131972 -25.6188 160.108 -1 -25.6158 160.108 998 -26.0938 159.650 52 981 -25.6188 160.108 TC -25.6000 160.100 2 35 -25.5904 160.339 TC 33 997 4 218
1972030S10175 1972 7 SP MM WENDY 1972-02-08 03:00:00 TS -25.7168 160.034 main 667 658 P_____P_PPP_P_ SH131972 -25.6725 160.058 -1 -25.6447 160.075 998 -26.1412 159.620 51 982 -25.6725 160.058 TC -25.6492 160.062 2 -25.6225 160.307 TC 32 998 3 224
1972030S10175 1972 7 SP EA WENDY 1972-02-08 05:00:00 TS -25.7923 159.947 999 bom main 658 658 P_____O_PPP_P_ SH131972 -25.7640 159.953 -1 -25.7000 160.000 999 -26.2347 159.550 48 984 -25.7640 159.953 TC -25.7367 159.980 2 -25.6745 160.239 TC 30 998 3 227
1972030S10175 1972 7 SP EA WENDY 1972-02-08 06:00:00 TS -25.8271 159.901 main 658 649 O_____P_POP_O_ jtwc_sh SH131972 -25.8000 159.900 -1 -25.7342 159.958 999 -26.2799 159.510 47 985 -25.8000 159.900 TC -25.7756 159.937 2 -25.7000 160.200 TC 30 999 3 232
1972030S10175 1972 7 SP EA WENDY 1972-02-08 09:00:00 TS -25.9200 159.759 main 649 639 P_____P_PPP_P_ SH131972 -25.8575 159.757 -1 -25.8359 159.811 999 -26.4036 159.370 43 987 -25.8575 159.757 TC -25.8755 159.795 2 -25.8075 160.065 TC 30 999 3 237
1972030S10175 1972 7 SP EA WENDY 1972-02-08 11:00:00 TS -25.9727 159.653 1000 bom main 641 631 P_____O_PPP_P_ SH131972 -25.8828 159.656 -1 -25.9000 159.700 1000 -26.4717 159.260 41 989 -25.8828 159.656 TC -25.9304 159.687 2 -25.8724 159.958 TC 30 999 3 241
1972030S10175 1972 7 SP EA WENDY 1972-02-08 12:00:00 TS -25.9984 159.597 main 631 621 O_____P_OOP_O_ jtwc_sh SH131972 -25.9000 159.600 -1 -25.9340 159.654 1000 -26.5000 159.200 40 990 -25.9000 159.600 TC -25.9551 159.628 2 -25.9000 159.900 TC 30 1000 4 242
1972030S10175 1972 7 SP EA WENDY 1972-02-08 14:00:00 TS -26.0539 159.480 main 623 613 P_____P_PPO_P_ SH131972 -25.9642 159.480 -1 -26.0013 159.561 1000 -26.5440 159.070 38 991 -25.9642 159.480 TC -26.0000 159.500 1 -25.9358 159.775 TC 30 1000 4 242
1972030S10175 1972 7 SP EA WENDY 1972-02-08 15:00:00 TS -26.0821 159.419 main 613 596 P_____P_PPP_P_ SH131972 -26.0000 159.415 -1 -26.0336 159.513 1000 -26.5602 159.001 37 991 -26.0000 159.415 TC -26.0293 159.442 1 -25.9500 159.707 TC 30 1000 4 246
1972030S10175 1972 7 SP EA WENDY 1972-02-08 18:00:00 TS -26.1589 159.218 main 596 576 O_____P_POP_O_ jtwc_sh SH131972 -26.1000 159.200 -1 -26.1197 159.342 1000 -26.5904 158.780 35 993 -26.1000 159.200 TC -26.1089 159.253 1 -26.0000 159.500 TC 30 1000 4 251
1972030S10175 1972 7 SP EA WENDY 1972-02-08 21:00:00 TS -26.2085 159.012 main 576 567 P_____P_PPP_P_ SH131972 -26.1649 158.972 -1 -26.1802 159.108 1000 -26.6004 158.544 32 995 -26.1649 158.972 TC -26.1687 159.023 1 -26.1147 159.338 TC 30 1000 4 259
1972030S10175 1972 7 SP EA WENDY 1972-02-08 23:00:00 TS -26.2231 158.851 1000 bom main 567 557 P_____O_PPP_P_ SH131972 -26.1916 158.797 -1 -26.2000 158.900 1000 -26.6007 158.382 30 996 -26.1916 158.797 TC -26.1932 158.839 1 -26.1810 159.195 TC 30 1000 4 268
1972030S10175 1972 7 SP EA WENDY 1972-02-09 00:00:00 TS -26.2155 158.765 main 557 528 O_____P_OOP_O_ jtwc_sh SH131972 -26.2000 158.700 -1 -26.1972 158.774 1000 -26.6000 158.300 30 997 -26.2000 158.700 TC -26.1998 158.735 1 -26.2000 159.100 TC 30 1000 5 275
1972030S10175 1972 7 SP EA WENDY 1972-02-09 02:00:00 TS -26.2000 158.548 main 528 518 P_____P__PO_P_ SH131972 -26.2186 158.504 -1 -26.1777 158.490 1000 -26.2186 158.504 TC -26.2000 158.500 1 -26.1850 158.845 TC 30 1000 6 274
1972030S10175 1972 7 SP EA WENDY 1972-02-09 03:00:00 TS -26.1932 158.416 main 518 479 P_____P__PP_P_ SH131972 -26.2222 158.395 -1 -26.1636 158.335 1000 -26.2222 158.395 TC -26.1930 158.368 1 -26.1651 158.695 TC 30 1000 8 275
1972030S10175 1972 7 SP EA WENDY 1972-02-09 06:00:00 TS -26.1525 157.967 main 479 438 O_____P__OP_O_ jtwc_sh SH131972 -26.2000 158.000 -1 -26.1189 157.839 1000 -26.2000 158.000 TC -26.1462 157.921 1 -26.1000 158.200 TC 30 1000 8 276
1972030S10175 1972 7 SP EA WENDY 1972-02-09 08:00:00 TS -26.1191 157.634 1001 bom main 438 428 P_____O__PP_P_ SH131972 -26.1511 157.668 -1 -26.1000 157.500 1001 -26.1511 157.668 TC -26.0974 157.589 1 -26.1083 157.875 TC 28 1000 9 277
1972030S10175 1972 7 SP EA WENDY 1972-02-09 09:00:00 TS -26.1004 157.463 main 428 390 P_____P__PP_P_ SH131972 -26.1181 157.485 -1 -26.1050 157.335 1001 -26.1181 157.485 TC -26.0688 157.415 1 -26.1149 157.708 TC 27 1000 9 277
1972030S10175 1972 7 SP EA WENDY 1972-02-09 11:00:00 TS -26.0644 157.117 1001 bom main 390 381 P_____O__PP_P_ SH131972 -26.0413 157.098 -1 -26.1000 157.000 1001 -26.0413 157.098 TC -26.0052 157.055 1 -26.1144 157.369 TC 25 1000 9 276
1972030S10175 1972 7 SP EA WENDY 1972-02-09 12:00:00 TS -26.0500 156.959 main 377 349 O_____P__OP_O_ jtwc_sh SH131972 -26.0000 156.900 -1 -26.0768 156.832 1001 -26.0000 156.900 TC -25.9711 156.871 1 -26.1000 157.200 TC 25 1001 8 279
1972030S10175 1972 7 SP EA WENDY 1972-02-09 14:00:00 TS -25.9998 156.681 main 349 339 ______P___O_P_ SH131972 -1 -25.9897 156.498 1001 TC -25.9000 156.500 1 -26.0323 156.864 TC 25 1001 8 283
1972030S10175 1972 7 SP EA WENDY 1972-02-09 15:00:00 TS -25.9622 156.551 main 339 294 ______P_____P_ SH131972 -1 -25.9314 156.332 1001 TC 1 -25.9828 156.697 TC 25 1001 8 292
1972030S10175 1972 7 SP EA WENDY 1972-02-09 17:00:00 TS -25.8428 156.243 1001 bom main 294 294 ______O_____P_ SH131972 -1 -25.8000 156.000 1001 TC 1 -25.8643 156.365 TC 25 1001 7 297
1972030S10175 1972 7 SP EA WENDY 1972-02-09 18:00:00 TS -25.8000 156.200 main 294 ____________O_ -1 1 -25.8000 156.200 TC 25 1001 3 320

Digital Typhoon Data and Search

About IBTrACS Database

This database is a web-friendly format of International Best Track Archive for Climate Stewardship (IBTrACS), a global best track data archive curated by NOAA dating back to 1842.

Updated: 2021-10-25